createdAt,value
2017-08-26T00:01:46.792Z,5.68
2017-08-26T00:04:15.066Z,7.28
2017-08-26T00:06:43.332Z,5.24
2017-08-26T00:09:11.651Z,5.50
2017-08-26T00:11:39.919Z,5.98
2017-08-26T00:14:08.179Z,5.38
2017-08-26T00:16:36.453Z,6.44
2017-08-26T00:19:04.708Z,5.70
2017-08-26T00:21:32.227Z,5.96
2017-08-26T00:24:00.472Z,5.76
2017-08-26T00:26:28.753Z,5.78
2017-08-26T00:28:57.013Z,6.24
2017-08-26T00:31:25.309Z,5.62
2017-08-26T00:33:53.585Z,6.92
2017-08-26T00:36:21.881Z,5.74
2017-08-26T00:38:50.148Z,6.38
2017-08-26T00:41:18.395Z,6.34
2017-08-26T00:43:46.698Z,6.06
2017-08-26T00:46:14.959Z,5.58
2017-08-26T00:48:43.224Z,5.50
2017-08-26T00:51:11.499Z,6.38
2017-08-26T00:53:39.773Z,5.78
2017-08-26T00:56:08.059Z,5.46
2017-08-26T00:58:36.318Z,5.58
2017-08-26T01:01:04.616Z,5.96
2017-08-26T01:03:32.888Z,6.22
2017-08-26T01:06:01.143Z,6.02
2017-08-26T01:08:29.424Z,6.42
2017-08-26T01:10:57.732Z,6.06
2017-08-26T01:13:26.002Z,6.36
2017-08-26T01:15:54.291Z,5.38
2017-08-26T01:18:22.573Z,6.26
2017-08-26T01:20:51.825Z,7.34
2017-08-26T01:23:20.119Z,5.66
2017-08-26T01:25:48.369Z,7.56
2017-08-26T01:28:16.664Z,7.26
2017-08-26T01:30:44.941Z,7.40
2017-08-26T01:33:13.237Z,7.60
2017-08-26T01:35:41.500Z,7.80
2017-08-26T01:38:09.809Z,6.00
2017-08-26T01:40:39.139Z,6.90
2017-08-26T01:43:07.406Z,9.30
2017-08-26T01:45:35.664Z,6.48
2017-08-26T01:48:03.965Z,6.50
2017-08-26T01:50:32.238Z,8.68
2017-08-26T01:53:00.499Z,8.50
2017-08-26T01:55:28.792Z,7.32
2017-08-26T01:57:57.101Z,6.98
2017-08-26T02:00:25.369Z,7.20
2017-08-26T02:02:53.630Z,7.04
2017-08-26T02:05:21.925Z,7.34
2017-08-26T02:07:50.184Z,6.62
2017-08-26T02:10:18.477Z,7.08
2017-08-26T02:12:46.741Z,6.80
2017-08-26T02:15:15.084Z,6.38
2017-08-26T02:17:43.357Z,6.64
2017-08-26T02:20:11.623Z,7.00
2017-08-26T02:22:39.916Z,7.72
2017-08-26T02:25:08.213Z,6.86
2017-08-26T02:27:36.482Z,7.00
2017-08-26T02:30:04.742Z,9.40
2017-08-26T02:32:33.081Z,7.38
2017-08-26T02:35:01.353Z,7.66
2017-08-26T02:37:29.620Z,6.62
2017-08-26T02:39:57.925Z,7.90
2017-08-26T02:42:26.189Z,7.30
2017-08-26T02:44:54.495Z,7.90
2017-08-26T02:47:22.766Z,7.86
2017-08-26T02:49:51.028Z,6.52
2017-08-26T02:52:19.324Z,7.20
2017-08-26T02:54:47.589Z,6.84
2017-08-26T02:57:15.891Z,6.22
2017-08-26T02:59:44.156Z,6.92
2017-08-26T03:02:12.421Z,7.52
2017-08-26T03:04:40.708Z,6.92
2017-08-26T03:07:08.969Z,7.50
2017-08-26T03:09:37.260Z,6.42
2017-08-26T03:12:05.553Z,7.86
2017-08-26T03:14:33.856Z,7.16
2017-08-26T03:17:02.113Z,7.22
2017-08-26T03:19:30.385Z,8.00
2017-08-26T03:21:58.686Z,8.14
2017-08-26T03:24:27.922Z,7.40
2017-08-26T03:26:56.213Z,7.00
2017-08-26T03:29:24.481Z,8.26
2017-08-26T03:31:52.775Z,8.50
2017-08-26T03:34:21.037Z,8.68
2017-08-26T03:36:49.397Z,6.96
2017-08-26T03:39:17.663Z,8.54
2017-08-26T03:41:45.936Z,7.86
2017-08-26T03:44:14.231Z,7.86
2017-08-26T03:46:42.528Z,8.04
2017-08-26T03:49:10.791Z,8.18
2017-08-26T03:51:39.105Z,8.18
2017-08-26T03:54:07.377Z,8.54
2017-08-26T03:56:35.684Z,7.82
2017-08-26T03:59:03.968Z,9.16
2017-08-26T04:01:32.240Z,10.44
2017-08-26T04:04:00.538Z,8.18
2017-08-26T04:06:28.803Z,9.46
2017-08-26T04:08:57.119Z,8.68
2017-08-26T04:11:25.381Z,8.24
2017-08-26T04:13:53.652Z,8.50
2017-08-26T04:16:21.949Z,9.78
2017-08-26T04:18:50.261Z,10.20
2017-08-26T04:21:18.529Z,9.06
2017-08-26T04:23:46.798Z,8.50
2017-08-26T04:26:15.087Z,9.06
2017-08-26T04:28:43.364Z,8.82
2017-08-26T04:31:11.680Z,9.56
2017-08-26T04:33:39.954Z,10.30
2017-08-26T04:36:08.274Z,9.22
2017-08-26T04:38:36.545Z,9.32
2017-08-26T04:41:04.827Z,10.16
2017-08-26T04:43:33.131Z,9.46
2017-08-26T04:46:01.459Z,10.08
2017-08-26T04:48:29.771Z,9.44
2017-08-26T04:50:58.057Z,9.66
2017-08-26T04:53:26.326Z,9.18
2017-08-26T04:55:54.625Z,8.08
2017-08-26T04:58:22.889Z,8.00
2017-08-26T05:00:51.152Z,9.42
2017-08-26T05:03:19.456Z,9.34
2017-08-26T05:05:47.728Z,8.94
2017-08-26T05:08:16.030Z,9.38
2017-08-26T05:10:44.332Z,9.76
2017-08-26T05:13:12.635Z,9.20
2017-08-26T05:15:40.904Z,8.10
2017-08-26T05:18:09.167Z,8.86
2017-08-26T05:20:37.467Z,10.08
2017-08-26T05:23:05.740Z,8.78
2017-08-26T05:25:34.037Z,9.58
2017-08-26T05:28:02.327Z,8.84
2017-08-26T05:30:30.637Z,10.24
2017-08-26T05:32:58.912Z,9.20
2017-08-26T05:35:27.181Z,10.06
2017-08-26T05:37:54.713Z,10.12
2017-08-26T05:40:22.972Z,9.26
2017-08-26T05:42:51.301Z,10.28
2017-08-26T05:45:19.589Z,10.50
2017-08-26T05:47:47.857Z,10.68
2017-08-26T05:50:16.148Z,9.86
2017-08-26T05:52:44.413Z,9.96
2017-08-26T05:55:12.724Z,11.16
2017-08-26T05:57:40.986Z,9.40
2017-08-26T06:00:09.250Z,9.26
2017-08-26T06:02:37.540Z,9.40
2017-08-26T06:05:05.832Z,9.22
2017-08-26T06:07:34.136Z,9.92
2017-08-26T06:10:02.405Z,9.88
2017-08-26T06:12:30.659Z,10.38
2017-08-26T06:14:58.968Z,10.22
2017-08-26T06:17:27.229Z,9.76
2017-08-26T06:19:55.491Z,10.70
2017-08-26T06:22:23.792Z,10.38
2017-08-26T06:24:52.055Z,10.60
2017-08-26T06:27:20.318Z,10.26
2017-08-26T06:29:48.621Z,9.00
2017-08-26T06:32:16.885Z,12.16
2017-08-26T06:34:45.173Z,10.32
2017-08-26T06:37:13.463Z,12.34
2017-08-26T06:39:41.760Z,12.46
2017-08-26T06:42:10.031Z,11.32
2017-08-26T06:44:38.300Z,11.46
2017-08-26T06:47:06.596Z,10.50
2017-08-26T06:49:34.864Z,12.26
2017-08-26T06:52:03.207Z,12.16
2017-08-26T06:54:31.473Z,11.56
2017-08-26T06:56:59.747Z,11.64
2017-08-26T06:59:28.044Z,11.62
2017-08-26T07:01:56.320Z,11.18
2017-08-26T07:04:24.615Z,11.94
2017-08-26T07:06:52.892Z,11.74
2017-08-26T07:09:21.195Z,12.78
2017-08-26T07:11:49.863Z,11.04
2017-08-26T07:14:18.465Z,12.58
2017-08-26T07:16:46.735Z,11.66
2017-08-26T07:19:14.997Z,12.58
2017-08-26T07:21:43.284Z,12.50
2017-08-26T07:24:11.572Z,14.86
2017-08-26T07:26:39.862Z,14.08
2017-08-26T07:29:08.157Z,15.10
2017-08-26T07:31:36.416Z,14.78
2017-08-26T07:34:04.709Z,15.28
2017-08-26T07:36:38.873Z,17.10
2017-08-26T07:39:07.171Z,17.00
2017-08-26T07:41:35.429Z,17.40
2017-08-26T07:44:03.704Z,16.46
2017-08-26T07:46:32.051Z,19.54
2017-08-26T07:49:00.320Z,17.98
2017-08-26T07:51:28.589Z,21.58
2017-08-26T07:53:56.876Z,21.56
2017-08-26T07:56:25.129Z,23.98
2017-08-26T07:58:53.414Z,22.84
2017-08-26T08:01:21.707Z,23.04
2017-08-26T08:03:50.001Z,24.00
2017-08-26T08:06:18.297Z,22.14
2017-08-26T08:08:46.591Z,25.06
2017-08-26T08:11:14.867Z,27.64
2017-08-26T08:13:43.168Z,22.26
2017-08-26T08:16:11.432Z,22.04
2017-08-26T08:18:39.692Z,23.78
2017-08-26T08:21:08.001Z,22.66
2017-08-26T08:23:36.264Z,24.16
2017-08-26T08:26:04.528Z,23.88
2017-08-26T08:28:32.822Z,25.64
2017-08-26T08:31:01.115Z,25.56
2017-08-26T08:33:29.381Z,23.12
2017-08-26T08:35:57.639Z,25.90
2017-08-26T08:38:25.944Z,25.78
2017-08-26T08:40:54.214Z,24.26
2017-08-26T08:43:22.493Z,22.16
2017-08-26T08:45:50.795Z,25.58
2017-08-26T08:48:19.082Z,26.84
2017-08-26T08:50:47.344Z,25.70
2017-08-26T08:53:15.633Z,27.08
2017-08-26T08:55:43.900Z,25.58
2017-08-26T08:58:12.196Z,24.06
2017-08-26T09:00:40.460Z,27.14
2017-08-26T09:03:08.748Z,27.36
2017-08-26T09:05:36.296Z,27.92
2017-08-26T09:08:04.557Z,28.90
2017-08-26T09:10:32.821Z,27.26
2017-08-26T09:13:01.107Z,23.84
2017-08-26T09:15:29.380Z,23.98
2017-08-26T09:17:57.702Z,24.82
2017-08-26T09:20:25.969Z,27.14
2017-08-26T09:22:54.236Z,24.18
2017-08-26T09:25:22.541Z,29.00
2017-08-26T09:27:50.806Z,26.42
2017-08-26T09:30:21.044Z,28.26
2017-08-26T09:32:49.304Z,25.64
2017-08-26T09:35:17.573Z,24.76
2017-08-26T09:37:45.868Z,25.30
2017-08-26T09:40:14.133Z,24.30
2017-08-26T09:42:42.438Z,27.74
2017-08-26T09:45:10.733Z,30.42
2017-08-26T09:47:39.037Z,25.30
2017-08-26T09:50:07.380Z,28.78
2017-08-26T09:52:35.645Z,28.42
2017-08-26T09:55:03.912Z,30.62
2017-08-26T09:57:32.214Z,30.60
2017-08-26T10:00:00.507Z,29.24
2017-08-26T10:02:28.767Z,32.42
2017-08-26T10:04:57.077Z,29.84
2017-08-26T10:07:25.337Z,32.00
2017-08-26T10:09:53.609Z,33.12
2017-08-26T10:12:21.911Z,34.44
2017-08-26T10:14:50.197Z,29.62
2017-08-26T10:17:18.499Z,34.60
2017-08-26T10:19:46.761Z,34.58
2017-08-26T10:22:15.030Z,35.34
2017-08-26T10:24:43.329Z,33.74
2017-08-26T10:27:11.596Z,31.44
2017-08-26T10:29:39.945Z,31.52
2017-08-26T10:32:08.216Z,31.96
2017-08-26T10:34:36.497Z,33.42
2017-08-26T10:37:04.810Z,33.72
2017-08-26T10:39:33.074Z,31.72
2017-08-26T10:42:01.339Z,31.48
2017-08-26T10:44:29.657Z,33.98
2017-08-26T10:46:57.923Z,32.44
2017-08-26T10:49:26.188Z,30.38
2017-08-26T10:51:54.508Z,31.66
2017-08-26T10:54:22.764Z,31.00
2017-08-26T10:56:51.044Z,35.44
2017-08-26T10:59:19.344Z,33.98
2017-08-26T11:01:47.654Z,33.62
2017-08-26T11:04:15.980Z,36.12
2017-08-26T11:06:44.241Z,34.86
2017-08-26T11:09:12.499Z,34.46
2017-08-26T11:11:40.790Z,32.08
2017-08-26T11:14:09.074Z,36.88
2017-08-26T11:16:37.348Z,36.52
2017-08-26T11:19:05.663Z,34.86
2017-08-26T11:21:33.928Z,39.24
2017-08-26T11:24:02.246Z,37.82
2017-08-26T11:26:30.516Z,35.46
2017-08-26T11:28:58.788Z,35.64
2017-08-26T11:31:27.084Z,32.70
2017-08-26T11:33:55.391Z,32.40
2017-08-26T11:36:23.676Z,34.60
2017-08-26T11:38:51.972Z,30.02
2017-08-26T11:41:20.239Z,31.94
2017-08-26T11:43:48.523Z,29.38
2017-08-26T11:46:16.802Z,24.94
2017-08-26T11:48:44.345Z,25.56
2017-08-26T11:51:12.618Z,26.42
2017-08-26T11:53:40.885Z,27.20
2017-08-26T11:56:09.182Z,24.48
2017-08-26T11:58:37.449Z,24.28
2017-08-26T12:01:05.743Z,24.18
2017-08-26T12:03:34.050Z,24.84
2017-08-26T12:06:02.324Z,25.94
2017-08-26T12:08:29.823Z,26.78
2017-08-26T12:10:58.118Z,24.20
2017-08-26T12:13:26.424Z,23.34
2017-08-26T12:15:53.934Z,23.98
2017-08-26T12:18:22.199Z,24.68
2017-08-26T12:20:50.531Z,25.46
2017-08-26T12:23:18.792Z,25.22
2017-08-26T12:25:47.052Z,25.22
2017-08-26T12:28:15.347Z,27.52
2017-08-26T12:30:43.649Z,26.20
2017-08-26T12:33:11.921Z,24.34
2017-08-26T12:35:40.264Z,26.16
2017-08-26T12:38:08.585Z,24.90
2017-08-26T12:40:36.948Z,21.74
2017-08-26T12:43:05.219Z,20.20
2017-08-26T12:45:33.516Z,19.98
2017-08-26T12:48:01.803Z,20.64
2017-08-26T12:50:29.328Z,20.18
2017-08-26T12:52:57.598Z,18.36
2017-08-26T12:55:25.900Z,24.96
2017-08-26T12:57:54.165Z,22.54
2017-08-26T13:00:22.497Z,20.70
2017-08-26T13:02:50.774Z,17.50
2017-08-26T13:05:19.057Z,18.46
2017-08-26T13:07:47.354Z,21.60
2017-08-26T13:10:15.621Z,18.08
2017-08-26T13:12:43.946Z,17.36
2017-08-26T13:15:12.212Z,13.28
2017-08-26T13:17:40.475Z,13.54
2017-08-26T13:20:08.787Z,12.96
2017-08-26T13:22:37.050Z,14.14
2017-08-26T13:25:04.576Z,13.88
2017-08-26T13:27:32.885Z,11.74
2017-08-26T13:30:01.155Z,14.64
2017-08-26T13:32:29.423Z,12.14
2017-08-26T13:34:57.743Z,13.34
2017-08-26T13:37:26.001Z,13.50
2017-08-26T13:39:54.292Z,11.24
2017-08-26T13:42:22.565Z,12.36
2017-08-26T13:44:50.864Z,15.80
2017-08-26T13:47:19.125Z,14.06
2017-08-26T13:49:47.412Z,12.16
2017-08-26T13:52:15.706Z,14.24
2017-08-26T13:54:43.974Z,12.88
2017-08-26T13:57:12.267Z,12.34
2017-08-26T13:59:40.535Z,11.94
2017-08-26T14:02:08.840Z,11.88
2017-08-26T14:04:37.109Z,11.58
2017-08-26T14:07:05.417Z,12.28
2017-08-26T14:09:33.692Z,12.42
2017-08-26T14:12:01.989Z,12.08
2017-08-26T14:14:30.288Z,12.14
2017-08-26T14:16:58.545Z,14.70
2017-08-26T14:19:26.838Z,12.62
2017-08-26T14:21:55.108Z,13.74
2017-08-26T14:24:23.412Z,11.90
2017-08-26T14:26:51.723Z,13.50
2017-08-26T14:29:19.992Z,14.52
2017-08-26T14:31:47.493Z,13.38
2017-08-26T14:34:15.802Z,13.48
2017-08-26T14:36:44.072Z,12.76
2017-08-26T14:39:12.373Z,12.44
2017-08-26T14:41:40.632Z,12.80
2017-08-26T14:44:08.898Z,9.32
2017-08-26T14:46:37.192Z,9.52
2017-08-26T14:49:05.454Z,9.82
2017-08-26T14:51:32.993Z,8.20
2017-08-26T14:54:01.252Z,7.86
2017-08-26T14:56:29.516Z,8.56
2017-08-26T14:58:57.787Z,7.08
2017-08-26T15:01:26.049Z,7.96
2017-08-26T15:03:54.332Z,8.62
2017-08-26T15:06:22.642Z,8.64
2017-08-26T15:08:50.902Z,9.20
2017-08-26T15:11:19.170Z,9.26
2017-08-26T15:13:47.463Z,9.16
2017-08-26T15:16:15.720Z,8.76
2017-08-26T15:18:43.987Z,8.08
2017-08-26T15:21:12.283Z,8.78
2017-08-26T15:23:40.545Z,9.14
2017-08-26T15:26:08.842Z,8.58
2017-08-26T15:28:37.133Z,11.42
2017-08-26T15:31:05.426Z,8.38
2017-08-26T15:33:33.684Z,9.82
2017-08-26T15:36:01.987Z,9.88
2017-08-26T15:38:30.301Z,9.76
2017-08-26T15:40:58.598Z,8.76
2017-08-26T15:43:26.872Z,10.08
2017-08-26T15:45:55.145Z,11.20
2017-08-26T15:48:23.453Z,12.16
2017-08-26T15:50:51.718Z,11.46
2017-08-26T15:53:19.988Z,14.14
2017-08-26T15:55:48.301Z,11.54
2017-08-26T15:58:16.570Z,13.34
2017-08-26T16:00:44.870Z,12.86
2017-08-26T16:03:13.145Z,11.26
2017-08-26T16:05:41.448Z,10.00
2017-08-26T16:08:09.725Z,11.36
2017-08-26T16:10:37.997Z,9.66
2017-08-26T16:13:06.298Z,9.10
2017-08-26T16:15:34.565Z,11.04
2017-08-26T16:18:02.083Z,12.04
2017-08-26T16:20:30.375Z,11.10
2017-08-26T16:22:58.640Z,9.80
2017-08-26T16:25:26.910Z,10.54
2017-08-26T16:27:55.208Z,9.84
2017-08-26T16:30:22.706Z,12.14
2017-08-26T16:32:51.013Z,12.82
2017-08-26T16:35:19.280Z,14.50
2017-08-26T16:37:47.600Z,12.58
2017-08-26T16:40:15.867Z,13.28
2017-08-26T16:42:44.138Z,11.58
2017-08-26T16:45:12.433Z,13.08
2017-08-26T16:47:39.940Z,13.62
2017-08-26T16:50:08.221Z,12.68
2017-08-26T16:52:36.529Z,13.20
2017-08-26T16:55:04.793Z,12.28
2017-08-26T16:57:33.085Z,13.80
2017-08-26T17:00:01.355Z,15.44
2017-08-26T17:02:29.654Z,16.52
2017-08-26T17:04:57.952Z,14.94
2017-08-26T17:07:26.229Z,15.00
2017-08-26T17:09:54.537Z,15.02
2017-08-26T17:12:22.813Z,14.84
2017-08-26T17:14:50.351Z,15.12
2017-08-26T17:17:17.867Z,13.50
2017-08-26T17:19:46.209Z,14.46
2017-08-26T17:22:14.491Z,14.92
2017-08-26T17:24:42.770Z,15.32
2017-08-26T17:27:11.071Z,13.42
2017-08-26T17:29:39.334Z,12.16
2017-08-26T17:32:07.636Z,12.26
2017-08-26T17:34:35.904Z,10.70
2017-08-26T17:37:04.212Z,10.72
2017-08-26T17:39:32.489Z,9.78
2017-08-26T17:42:00.760Z,12.64
2017-08-26T17:44:29.052Z,11.72
2017-08-26T17:46:57.329Z,11.12
2017-08-26T17:49:25.650Z,11.56
2017-08-26T17:51:53.922Z,11.64
2017-08-26T17:54:22.208Z,11.08
2017-08-26T17:56:50.517Z,11.02
2017-08-26T17:59:18.828Z,9.38
2017-08-26T18:01:47.092Z,9.24
2017-08-26T18:04:15.368Z,12.22
2017-08-26T18:06:42.902Z,13.30
2017-08-26T18:09:11.200Z,9.84
2017-08-26T18:11:39.465Z,8.14
2017-08-26T18:14:07.729Z,8.08
2017-08-26T18:16:36.023Z,9.20
2017-08-26T18:19:04.334Z,9.44
2017-08-26T18:21:32.629Z,8.98
2017-08-26T18:24:00.929Z,8.52
2017-08-26T18:26:29.196Z,10.18
2017-08-26T18:28:57.501Z,9.06
2017-08-26T18:31:25.766Z,9.24
2017-08-26T18:33:54.029Z,8.40
2017-08-26T18:36:22.319Z,7.50
2017-08-26T18:38:50.583Z,8.16
2017-08-26T18:41:18.896Z,8.12
2017-08-26T18:43:47.157Z,9.28
2017-08-26T18:46:15.552Z,8.50
2017-08-26T18:48:43.844Z,9.16
2017-08-26T18:51:12.108Z,8.20
2017-08-26T18:53:40.413Z,9.08
2017-08-26T18:56:08.685Z,10.56
2017-08-26T18:58:36.996Z,9.34
2017-08-26T19:01:04.490Z,9.74
2017-08-26T19:03:32.765Z,9.38
2017-08-26T19:06:01.050Z,9.92
2017-08-26T19:08:29.320Z,9.78
2017-08-26T19:10:57.617Z,9.10
2017-08-26T19:13:25.891Z,9.52
2017-08-26T19:15:54.181Z,10.42
2017-08-26T19:18:22.485Z,10.64
2017-08-26T19:20:50.744Z,9.96
2017-08-26T19:23:19.005Z,9.82
2017-08-26T19:25:47.300Z,9.32
2017-08-26T19:28:15.600Z,10.32
2017-08-26T19:30:43.868Z,10.46
2017-08-26T19:33:12.165Z,10.98
2017-08-26T19:35:40.429Z,10.52
2017-08-26T19:38:08.750Z,10.76
2017-08-26T19:40:37.016Z,10.92
2017-08-26T19:43:05.285Z,11.14
2017-08-26T19:45:33.560Z,12.22
2017-08-26T19:48:01.867Z,11.48
2017-08-26T19:50:30.133Z,13.50
2017-08-26T19:52:58.449Z,11.98
2017-08-26T19:55:26.717Z,12.02
2017-08-26T19:57:54.980Z,12.38
2017-08-26T20:00:23.283Z,13.10
2017-08-26T20:02:51.550Z,12.54
2017-08-26T20:05:19.853Z,14.04
2017-08-26T20:07:48.119Z,14.22
2017-08-26T20:10:16.431Z,13.38
2017-08-26T20:12:44.706Z,13.84
2017-08-26T20:15:12.969Z,13.56
2017-08-26T20:17:41.290Z,13.78
2017-08-26T20:20:09.556Z,13.48
2017-08-26T20:22:37.822Z,14.02
2017-08-26T20:25:06.162Z,13.90
2017-08-26T20:27:33.661Z,14.08
2017-08-26T20:30:01.961Z,16.26
2017-08-26T20:32:30.224Z,15.36
2017-08-26T20:34:58.517Z,16.10
2017-08-26T20:37:26.795Z,15.26
2017-08-26T20:39:55.114Z,13.94
2017-08-26T20:42:23.381Z,14.92
2017-08-26T20:44:51.648Z,16.46
2017-08-26T20:47:19.952Z,17.44
2017-08-26T20:49:48.216Z,19.30
2017-08-26T20:52:16.491Z,17.04
2017-08-26T20:54:44.788Z,16.76
2017-08-26T20:57:13.065Z,16.78
2017-08-26T20:59:41.363Z,16.96
2017-08-26T21:02:09.691Z,17.48
2017-08-26T21:04:37.980Z,18.72
2017-08-26T21:07:06.246Z,18.02
2017-08-26T21:09:34.576Z,17.44
2017-08-26T21:12:02.849Z,17.70
2017-08-26T21:14:31.116Z,18.94
2017-08-26T21:16:59.422Z,18.16
2017-08-26T21:19:27.688Z,18.54
2017-08-26T21:21:55.969Z,20.18
2017-08-26T21:24:24.273Z,18.78
2017-08-26T21:26:52.555Z,18.74
2017-08-26T21:29:20.847Z,20.06
2017-08-26T21:31:49.124Z,18.90
2017-08-26T21:34:17.420Z,18.64
2017-08-26T21:36:45.679Z,19.58
2017-08-26T21:39:13.973Z,19.22
2017-08-26T21:41:42.246Z,20.28
2017-08-26T21:44:10.557Z,20.12
2017-08-26T21:46:38.838Z,21.08
2017-08-26T21:49:07.139Z,17.90
2017-08-26T21:51:35.412Z,20.30
2017-08-26T21:54:03.717Z,22.00
2017-08-26T21:56:31.217Z,21.12
2017-08-26T21:58:59.493Z,20.26
2017-08-26T22:01:27.800Z,20.18
2017-08-26T22:03:56.064Z,19.50
2017-08-26T22:06:24.361Z,21.38
2017-08-26T22:08:52.637Z,21.66
2017-08-26T22:11:20.935Z,21.56
2017-08-26T22:13:49.200Z,21.56
2017-08-26T22:16:16.749Z,23.24
2017-08-26T22:18:45.026Z,22.20
2017-08-26T22:21:13.296Z,21.06
2017-08-26T22:23:41.599Z,20.44
2017-08-26T22:26:09.925Z,20.46
2017-08-26T22:28:38.209Z,23.66
2017-08-26T22:31:06.474Z,21.10
2017-08-26T22:33:34.769Z,21.42
2017-08-26T22:36:03.029Z,21.12
2017-08-26T22:38:31.340Z,20.56
2017-08-26T22:40:59.601Z,21.20
2017-08-26T22:43:27.865Z,21.12
2017-08-26T22:45:56.178Z,21.12
2017-08-26T22:48:24.453Z,19.26
2017-08-26T22:50:52.713Z,21.60
2017-08-26T22:53:21.005Z,22.46
2017-08-26T22:55:49.272Z,21.56
2017-08-26T22:58:17.569Z,20.24
2017-08-26T23:00:45.832Z,20.22
2017-08-26T23:03:14.137Z,20.36
2017-08-26T23:05:42.424Z,21.46
2017-08-26T23:08:10.721Z,21.42
2017-08-26T23:10:39.001Z,21.44
2017-08-26T23:13:07.313Z,20.94
2017-08-26T23:15:35.588Z,20.30
2017-08-26T23:18:03.086Z,21.86
2017-08-26T23:20:31.384Z,20.72
2017-08-26T23:22:59.652Z,20.18
2017-08-26T23:25:27.951Z,20.60
2017-08-26T23:27:56.211Z,22.48
2017-08-26T23:30:24.523Z,21.88
2017-08-26T23:32:52.789Z,24.24
2017-08-26T23:35:21.054Z,20.18
2017-08-26T23:37:49.361Z,21.98
2017-08-26T23:40:17.642Z,20.42
2017-08-26T23:42:45.972Z,19.90
2017-08-26T23:45:14.247Z,20.24
2017-08-26T23:47:42.514Z,22.12
2017-08-26T23:50:10.819Z,20.14
2017-08-26T23:52:39.088Z,21.72
2017-08-26T23:55:07.365Z,22.80
2017-08-26T23:57:35.676Z,21.72
